Second Mesa, Arizona
Current Conditions -  °F | °C
As of 7:56 PM on Saturday 24 Jan 2015 (Local Time) from KINW Reporting Station
Clear Clear  
Wind Chill: -6°   Ceiling: Unl
Heat Index: -2°   Visibility: 10mi
Dew Point: -7°   Wind: 7mph
Humidity: 69%   Direction: 280°W
Pressure: 30.3"   Gusts: NA
Location:  35.82°N, 110.5°W
Report Text: KINW 250256Z AUTO 28006KT 10SM CLR M02/M07 A3030 RMK AO2 SLP292 T10171067 53012
Loading
Personal Weather Stations






























Interactive Weather Map New forecast layout! Learn more

10-Day Weather Forecast

Advertisements
Track Severe Weather on mobile